sensor_id;sensor_type;location;lat;lon;timestamp;temperature;humidity
23100;DHT22;53791;50.696;4.396;2023-08-17T00:00:53;20.00;99.90
23100;DHT22;53791;50.696;4.396;2023-08-17T00:03:21;19.90;99.90
23100;DHT22;53791;50.696;4.396;2023-08-17T00:05:48;19.90;99.90
23100;DHT22;53791;50.696;4.396;2023-08-17T00:08:16;19.90;99.90
23100;DHT22;53791;50.696;4.396;2023-08-17T00:10:46;19.90;99.90
23100;DHT22;53791;50.696;4.396;2023-08-17T00:13:14;19.80;99.90
23100;DHT22;53791;50.696;4.396;2023-08-17T00:15:41;19.80;99.90
23100;DHT22;53791;50.696;4.396;2023-08-17T00:18:11;19.80;99.90
23100;DHT22;53791;50.696;4.396;2023-08-17T00:20:38;19.80;99.90
23100;DHT22;53791;50.696;4.396;2023-08-17T00:23:06;19.80;99.90
23100;DHT22;53791;50.696;4.396;2023-08-17T00:25:33;19.80;99.90
23100;DHT22;53791;50.696;4.396;2023-08-17T00:28:01;19.70;99.90
23100;DHT22;53791;50.696;4.396;2023-08-17T00:30:28;19.60;99.90
23100;DHT22;53791;50.696;4.396;2023-08-17T00:32:56;19.60;99.90
23100;DHT22;53791;50.696;4.396;2023-08-17T00:35:23;19.60;99.90
23100;DHT22;53791;50.696;4.396;2023-08-17T00:37:51;19.60;99.90
23100;DHT22;53791;50.696;4.396;2023-08-17T00:40:18;19.60;99.90
23100;DHT22;53791;50.696;4.396;2023-08-17T00:42:46;19.50;99.90
23100;DHT22;53791;50.696;4.396;2023-08-17T00:45:13;19.50;99.90
23100;DHT22;53791;50.696;4.396;2023-08-17T00:47:41;19.50;99.90
23100;DHT22;53791;50.696;4.396;2023-08-17T00:50:10;19.40;99.90
23100;DHT22;53791;50.696;4.396;2023-08-17T00:56:09;19.40;99.90
23100;DHT22;53791;50.696;4.396;2023-08-17T00:58:52;19.30;99.90
23100;DHT22;53791;50.696;4.396;2023-08-17T01:01:16;19.30;99.90
23100;DHT22;53791;50.696;4.396;2023-08-17T01:03:44;19.20;99.90
23100;DHT22;53791;50.696;4.396;2023-08-17T01:06:12;19.10;99.90
23100;DHT22;53791;50.696;4.396;2023-08-17T01:08:40;19.20;99.90
23100;DHT22;53791;50.696;4.396;2023-08-17T01:11:22;19.20;99.90
23100;DHT22;53791;50.696;4.396;2023-08-17T01:13:58;19.20;99.90
23100;DHT22;53791;50.696;4.396;2023-08-17T01:16:38;19.20;99.90
23100;DHT22;53791;50.696;4.396;2023-08-17T01:19:01;19.10;99.90
23100;DHT22;53791;50.696;4.396;2023-08-17T01:21:44;19.20;99.90
23100;DHT22;53791;50.696;4.396;2023-08-17T01:24:14;19.10;99.90
23100;DHT22;53791;50.696;4.396;2023-08-17T01:26:43;19.10;99.90
23100;DHT22;53791;50.696;4.396;2023-08-17T01:29:10;19.10;99.90
23100;DHT22;53791;50.696;4.396;2023-08-17T01:32:04;19.10;99.90
23100;DHT22;53791;50.696;4.396;2023-08-17T01:34:10;19.10;99.90
23100;DHT22;53791;50.696;4.396;2023-08-17T01:36:46;19.00;99.90
23100;DHT22;53791;50.696;4.396;2023-08-17T01:39:14;19.00;99.90
23100;DHT22;53791;50.696;4.396;2023-08-17T01:41:53;19.00;99.90
23100;DHT22;53791;50.696;4.396;2023-08-17T01:44:14;19.00;99.90
23100;DHT22;53791;50.696;4.396;2023-08-17T01:46:41;18.90;99.90
23100;DHT22;53791;50.696;4.396;2023-08-17T01:49:09;18.90;99.90
23100;DHT22;53791;50.696;4.396;2023-08-17T01:51:36;18.90;99.90
23100;DHT22;53791;50.696;4.396;2023-08-17T01:54:04;18.90;99.90
23100;DHT22;53791;50.696;4.396;2023-08-17T01:56:32;18.90;99.90
23100;DHT22;53791;50.696;4.396;2023-08-17T01:58:59;18.80;99.90
23100;DHT22;53791;50.696;4.396;2023-08-17T02:01:27;18.80;99.90
23100;DHT22;53791;50.696;4.396;2023-08-17T02:03:54;18.80;99.90
23100;DHT22;53791;50.696;4.396;2023-08-17T02:06:22;18.90;99.90
23100;DHT22;53791;50.696;4.396;2023-08-17T02:08:49;18.90;99.90
23100;DHT22;53791;50.696;4.396;2023-08-17T02:11:18;18.90;99.90
23100;DHT22;53791;50.696;4.396;2023-08-17T02:13:54;18.90;99.90
23100;DHT22;53791;50.696;4.396;2023-08-17T02:16:22;18.90;99.90
23100;DHT22;53791;50.696;4.396;2023-08-17T02:18:49;18.90;99.90
23100;DHT22;53791;50.696;4.396;2023-08-17T02:21:17;19.00;99.90
23100;DHT22;53791;50.696;4.396;2023-08-17T02:23:44;19.00;99.90
23100;DHT22;53791;50.696;4.396;2023-08-17T02:26:12;19.10;99.90
23100;DHT22;53791;50.696;4.396;2023-08-17T02:28:39;19.10;99.90
23100;DHT22;53791;50.696;4.396;2023-08-17T02:31:07;19.10;99.90
23100;DHT22;53791;50.696;4.396;2023-08-17T02:33:34;19.10;99.90
23100;DHT22;53791;50.696;4.396;2023-08-17T02:36:03;19.10;99.90
23100;DHT22;53791;50.696;4.396;2023-08-17T02:38:31;19.20;99.90
23100;DHT22;53791;50.696;4.396;2023-08-17T02:40:58;19.10;99.90
23100;DHT22;53791;50.696;4.396;2023-08-17T02:43:26;19.20;99.90
23100;DHT22;53791;50.696;4.396;2023-08-17T02:45:53;19.20;99.90
23100;DHT22;53791;50.696;4.396;2023-08-17T02:48:21;19.20;99.90
23100;DHT22;53791;50.696;4.396;2023-08-17T02:50:48;19.20;99.90
23100;DHT22;53791;50.696;4.396;2023-08-17T02:53:16;19.20;99.90
23100;DHT22;53791;50.696;4.396;2023-08-17T02:55:43;19.20;99.90
23100;DHT22;53791;50.696;4.396;2023-08-17T02:58:11;19.20;99.90
23100;DHT22;53791;50.696;4.396;2023-08-17T03:00:38;19.20;99.90
23100;DHT22;53791;50.696;4.396;2023-08-17T03:03:06;19.20;99.90
23100;DHT22;53791;50.696;4.396;2023-08-17T03:05:34;19.20;99.90
23100;DHT22;53791;50.696;4.396;2023-08-17T03:08:01;19.20;99.90
23100;DHT22;53791;50.696;4.396;2023-08-17T03:10:29;19.20;99.90
23100;DHT22;53791;50.696;4.396;2023-08-17T03:13:04;19.20;99.90
23100;DHT22;53791;50.696;4.396;2023-08-17T03:15:28;19.20;99.90
23100;DHT22;53791;50.696;4.396;2023-08-17T03:17:55;19.20;99.90
23100;DHT22;53791;50.696;4.396;2023-08-17T03:20:23;19.10;99.90
23100;DHT22;53791;50.696;4.396;2023-08-17T03:22:50;19.10;99.90
23100;DHT22;53791;50.696;4.396;2023-08-17T03:25:25;19.20;99.90
23100;DHT22;53791;50.696;4.396;2023-08-17T03:27:50;19.10;99.90
23100;DHT22;53791;50.696;4.396;2023-08-17T03:30:17;19.10;99.90
23100;DHT22;53791;50.696;4.396;2023-08-17T03:32:48;19.10;99.90
23100;DHT22;53791;50.696;4.396;2023-08-17T03:35:18;19.10;99.90
23100;DHT22;53791;50.696;4.396;2023-08-17T03:37:45;19.10;99.90
23100;DHT22;53791;50.696;4.396;2023-08-17T03:40:12;19.00;99.90
23100;DHT22;53791;50.696;4.396;2023-08-17T03:42:40;19.00;99.90
23100;DHT22;53791;50.696;4.396;2023-08-17T03:45:08;19.00;99.90
23100;DHT22;53791;50.696;4.396;2023-08-17T03:47:35;19.00;99.90
23100;DHT22;53791;50.696;4.396;2023-08-17T03:50:03;19.00;99.90
23100;DHT22;53791;50.696;4.396;2023-08-17T03:52:31;19.00;99.90
23100;DHT22;53791;50.696;4.396;2023-08-17T03:54:58;19.00;99.90
23100;DHT22;53791;50.696;4.396;2023-08-17T03:57:26;19.00;99.90
23100;DHT22;53791;50.696;4.396;2023-08-17T03:59:53;19.00;99.90
23100;DHT22;53791;50.696;4.396;2023-08-17T04:02:21;19.00;99.90
23100;DHT22;53791;50.696;4.396;2023-08-17T04:04:48;19.00;99.90
23100;DHT22;53791;50.696;4.396;2023-08-17T04:07:22;19.00;99.90
23100;DHT22;53791;50.696;4.396;2023-08-17T04:09:50;19.00;99.90
23100;DHT22;53791;50.696;4.396;2023-08-17T04:12:18;19.00;99.90
23100;DHT22;53791;50.696;4.396;2023-08-17T04:14:45;19.00;99.90
23100;DHT22;53791;50.696;4.396;2023-08-17T04:17:12;18.90;99.90
23100;DHT22;53791;50.696;4.396;2023-08-17T04:19:40;18.90;99.90
23100;DHT22;53791;50.696;4.396;2023-08-17T04:22:12;18.90;99.90
23100;DHT22;53791;50.696;4.396;2023-08-17T04:24:37;18.80;99.90
23100;DHT22;53791;50.696;4.396;2023-08-17T04:27:04;18.80;99.90
23100;DHT22;53791;50.696;4.396;2023-08-17T04:29:32;18.70;99.90
23100;DHT22;53791;50.696;4.396;2023-08-17T04:32:00;18.60;99.90
23100;DHT22;53791;50.696;4.396;2023-08-17T04:34:27;18.70;99.90
23100;DHT22;53791;50.696;4.396;2023-08-17T04:36:56;18.60;99.90
23100;DHT22;53791;50.696;4.396;2023-08-17T04:39:24;18.60;99.90
23100;DHT22;53791;50.696;4.396;2023-08-17T04:41:51;18.50;99.90
23100;DHT22;53791;50.696;4.396;2023-08-17T04:44:25;18.60;99.90
23100;DHT22;53791;50.696;4.396;2023-08-17T04:46:51;18.50;99.90
23100;DHT22;53791;50.696;4.396;2023-08-17T04:49:19;18.50;99.90
23100;DHT22;53791;50.696;4.396;2023-08-17T04:51:46;18.40;99.90
23100;DHT22;53791;50.696;4.396;2023-08-17T04:54:14;18.40;99.90
23100;DHT22;53791;50.696;4.396;2023-08-17T04:56:41;18.30;99.90
23100;DHT22;53791;50.696;4.396;2023-08-17T04:59:09;18.30;99.90
23100;DHT22;53791;50.696;4.396;2023-08-17T05:01:37;18.30;99.90
23100;DHT22;53791;50.696;4.396;2023-08-17T05:04:05;18.40;99.90
23100;DHT22;53791;50.696;4.396;2023-08-17T05:06:32;18.40;99.90
23100;DHT22;53791;50.696;4.396;2023-08-17T05:09:00;18.40;99.90
23100;DHT22;53791;50.696;4.396;2023-08-17T05:11:27;18.60;99.90
23100;DHT22;53791;50.696;4.396;2023-08-17T05:13:55;18.40;99.90
23100;DHT22;53791;50.696;4.396;2023-08-17T05:16:22;18.40;99.90
23100;DHT22;53791;50.696;4.396;2023-08-17T05:18:50;18.40;99.90
23100;DHT22;53791;50.696;4.396;2023-08-17T05:21:17;18.30;99.90
23100;DHT22;53791;50.696;4.396;2023-08-17T05:23:45;18.30;99.90
23100;DHT22;53791;50.696;4.396;2023-08-17T05:26:12;18.40;99.90
23100;DHT22;53791;50.696;4.396;2023-08-17T05:28:41;18.30;99.90
23100;DHT22;53791;50.696;4.396;2023-08-17T05:31:10;18.20;99.90
23100;DHT22;53791;50.696;4.396;2023-08-17T05:33:37;18.30;99.90
23100;DHT22;53791;50.696;4.396;2023-08-17T05:36:07;18.20;99.90
23100;DHT22;53791;50.696;4.396;2023-08-17T05:38:35;18.30;99.90
23100;DHT22;53791;50.696;4.396;2023-08-17T05:41:02;18.30;99.90
23100;DHT22;53791;50.696;4.396;2023-08-17T05:43:31;18.40;99.90
23100;DHT22;53791;50.696;4.396;2023-08-17T05:45:59;18.30;99.90
23100;DHT22;53791;50.696;4.396;2023-08-17T05:48:27;18.20;99.90
23100;DHT22;53791;50.696;4.396;2023-08-17T05:50:56;18.20;99.90
23100;DHT22;53791;50.696;4.396;2023-08-17T05:53:23;18.20;99.90
23100;DHT22;53791;50.696;4.396;2023-08-17T05:55:51;18.20;99.90
23100;DHT22;53791;50.696;4.396;2023-08-17T05:58:18;18.30;99.90
23100;DHT22;53791;50.696;4.396;2023-08-17T06:00:48;18.40;99.90
23100;DHT22;53791;50.696;4.396;2023-08-17T06:03:16;18.40;99.90
23100;DHT22;53791;50.696;4.396;2023-08-17T06:05:46;18.40;99.90
23100;DHT22;53791;50.696;4.396;2023-08-17T06:08:12;18.50;99.90
23100;DHT22;53791;50.696;4.396;2023-08-17T06:10:40;18.60;99.90
23100;DHT22;53791;50.696;4.396;2023-08-17T06:13:07;18.50;99.90
23100;DHT22;53791;50.696;4.396;2023-08-17T06:15:39;18.50;99.90
23100;DHT22;53791;50.696;4.396;2023-08-17T06:18:04;18.60;99.90
23100;DHT22;53791;50.696;4.396;2023-08-17T06:20:32;18.60;99.90
23100;DHT22;53791;50.696;4.396;2023-08-17T06:23:00;18.70;99.90
23100;DHT22;53791;50.696;4.396;2023-08-17T06:25:27;18.70;99.90
23100;DHT22;53791;50.696;4.396;2023-08-17T06:27:54;18.70;99.90
23100;DHT22;53791;50.696;4.396;2023-08-17T06:30:22;18.60;99.90
23100;DHT22;53791;50.696;4.396;2023-08-17T06:32:53;18.60;99.90
23100;DHT22;53791;50.696;4.396;2023-08-17T06:35:20;18.70;99.90
23100;DHT22;53791;50.696;4.396;2023-08-17T06:37:48;18.80;99.90
23100;DHT22;53791;50.696;4.396;2023-08-17T06:40:17;18.80;99.90
23100;DHT22;53791;50.696;4.396;2023-08-17T06:42:44;18.70;99.90
23100;DHT22;53791;50.696;4.396;2023-08-17T06:45:12;18.70;99.90
23100;DHT22;53791;50.696;4.396;2023-08-17T06:47:41;18.70;99.90
23100;DHT22;53791;50.696;4.396;2023-08-17T06:50:09;18.70;99.90
23100;DHT22;53791;50.696;4.396;2023-08-17T06:52:36;18.60;99.90
23100;DHT22;53791;50.696;4.396;2023-08-17T06:55:06;18.60;99.90
23100;DHT22;53791;50.696;4.396;2023-08-17T06:57:33;18.60;99.90
23100;DHT22;53791;50.696;4.396;2023-08-17T07:00:01;18.60;99.90
23100;DHT22;53791;50.696;4.396;2023-08-17T07:02:28;18.70;99.90
23100;DHT22;53791;50.696;4.396;2023-08-17T07:04:56;18.70;99.90
23100;DHT22;53791;50.696;4.396;2023-08-17T07:07:23;18.70;99.90
23100;DHT22;53791;50.696;4.396;2023-08-17T07:09:51;18.70;99.90
23100;DHT22;53791;50.696;4.396;2023-08-17T07:12:21;18.70;99.90
23100;DHT22;53791;50.696;4.396;2023-08-17T07:14:50;18.80;99.90
23100;DHT22;53791;50.696;4.396;2023-08-17T07:17:18;18.70;99.90
23100;DHT22;53791;50.696;4.396;2023-08-17T07:19:45;18.80;99.90
23100;DHT22;53791;50.696;4.396;2023-08-17T07:22:13;18.80;99.90
23100;DHT22;53791;50.696;4.396;2023-08-17T07:24:40;18.80;99.90
23100;DHT22;53791;50.696;4.396;2023-08-17T07:27:08;18.70;99.90
23100;DHT22;53791;50.696;4.396;2023-08-17T07:32:58;18.60;99.90
23100;DHT22;53791;50.696;4.396;2023-08-17T07:35:26;18.60;99.90
23100;DHT22;53791;50.696;4.396;2023-08-17T07:37:54;18.60;99.90
23100;DHT22;53791;50.696;4.396;2023-08-17T07:40:21;18.60;99.90
23100;DHT22;53791;50.696;4.396;2023-08-17T07:42:49;18.70;99.90
23100;DHT22;53791;50.696;4.396;2023-08-17T07:45:16;18.70;99.90
23100;DHT22;53791;50.696;4.396;2023-08-17T07:47:44;18.80;99.90
23100;DHT22;53791;50.696;4.396;2023-08-17T07:50:11;18.80;99.90
23100;DHT22;53791;50.696;4.396;2023-08-17T07:52:39;18.90;99.90
23100;DHT22;53791;50.696;4.396;2023-08-17T07:55:07;19.00;99.90
23100;DHT22;53791;50.696;4.396;2023-08-17T07:57:34;18.90;99.90
23100;DHT22;53791;50.696;4.396;2023-08-17T08:00:02;19.00;99.90
23100;DHT22;53791;50.696;4.396;2023-08-17T08:02:29;19.00;99.90
23100;DHT22;53791;50.696;4.396;2023-08-17T08:04:57;19.00;99.90
23100;DHT22;53791;50.696;4.396;2023-08-17T08:07:25;18.90;99.90
23100;DHT22;53791;50.696;4.396;2023-08-17T08:09:52;18.90;99.90
23100;DHT22;53791;50.696;4.396;2023-08-17T08:12:20;19.00;99.90
23100;DHT22;53791;50.696;4.396;2023-08-17T08:14:47;18.90;99.90
23100;DHT22;53791;50.696;4.396;2023-08-17T08:17:20;18.90;99.90
23100;DHT22;53791;50.696;4.396;2023-08-17T08:19:48;18.90;99.90
23100;DHT22;53791;50.696;4.396;2023-08-17T08:22:17;19.10;99.90
23100;DHT22;53791;50.696;4.396;2023-08-17T08:24:46;19.10;99.90
23100;DHT22;53791;50.696;4.396;2023-08-17T08:27:14;19.10;99.90
23100;DHT22;53791;50.696;4.396;2023-08-17T08:29:41;19.10;99.90
23100;DHT22;53791;50.696;4.396;2023-08-17T08:32:09;19.10;99.90
23100;DHT22;53791;50.696;4.396;2023-08-17T08:34:36;19.10;99.90
23100;DHT22;53791;50.696;4.396;2023-08-17T08:37:04;19.20;99.90
23100;DHT22;53791;50.696;4.396;2023-08-17T08:39:31;19.20;99.90
23100;DHT22;53791;50.696;4.396;2023-08-17T08:42:01;19.40;99.90
23100;DHT22;53791;50.696;4.396;2023-08-17T08:44:28;19.30;99.90
23100;DHT22;53791;50.696;4.396;2023-08-17T08:46:57;19.30;99.90
23100;DHT22;53791;50.696;4.396;2023-08-17T08:49:25;19.30;99.90
23100;DHT22;53791;50.696;4.396;2023-08-17T08:51:56;19.30;99.90
23100;DHT22;53791;50.696;4.396;2023-08-17T08:54:26;19.40;99.90
23100;DHT22;53791;50.696;4.396;2023-08-17T08:57:01;19.50;99.90
23100;DHT22;53791;50.696;4.396;2023-08-17T08:59:29;19.70;99.90
23100;DHT22;53791;50.696;4.396;2023-08-17T09:01:57;19.80;99.90
23100;DHT22;53791;50.696;4.396;2023-08-17T09:09:35;19.80;99.90
23100;DHT22;53791;50.696;4.396;2023-08-17T09:12:08;19.70;99.90
23100;DHT22;53791;50.696;4.396;2023-08-17T09:14:33;19.70;99.90
23100;DHT22;53791;50.696;4.396;2023-08-17T09:17:00;19.70;99.90
23100;DHT22;53791;50.696;4.396;2023-08-17T09:19:28;19.90;99.90
23100;DHT22;53791;50.696;4.396;2023-08-17T09:21:56;20.10;99.90
23100;DHT22;53791;50.696;4.396;2023-08-17T09:24:23;20.30;99.90
23100;DHT22;53791;50.696;4.396;2023-08-17T09:26:51;20.60;99.90
23100;DHT22;53791;50.696;4.396;2023-08-17T09:29:21;20.50;99.90
23100;DHT22;53791;50.696;4.396;2023-08-17T09:31:49;20.70;99.90
23100;DHT22;53791;50.696;4.396;2023-08-17T09:34:17;20.60;99.90
23100;DHT22;53791;50.696;4.396;2023-08-17T09:36:55;20.60;99.90
23100;DHT22;53791;50.696;4.396;2023-08-17T09:39:34;20.70;99.90
23100;DHT22;53791;50.696;4.396;2023-08-17T09:42:01;20.60;99.90
23100;DHT22;53791;50.696;4.396;2023-08-17T09:44:29;20.40;99.90
23100;DHT22;53791;50.696;4.396;2023-08-17T09:46:57;20.20;99.90
23100;DHT22;53791;50.696;4.396;2023-08-17T09:49:25;20.20;99.90
23100;DHT22;53791;50.696;4.396;2023-08-17T09:51:59;20.20;99.90
23100;DHT22;53791;50.696;4.396;2023-08-17T09:54:30;20.20;99.90
23100;DHT22;53791;50.696;4.396;2023-08-17T09:57:02;20.20;99.90
23100;DHT22;53791;50.696;4.396;2023-08-17T09:59:30;20.20;99.90
23100;DHT22;53791;50.696;4.396;2023-08-17T10:01:58;20.20;99.90
23100;DHT22;53791;50.696;4.396;2023-08-17T10:04:28;20.40;99.90
23100;DHT22;53791;50.696;4.396;2023-08-17T10:07:01;20.50;99.90
23100;DHT22;53791;50.696;4.396;2023-08-17T10:09:31;20.70;99.90
23100;DHT22;53791;50.696;4.396;2023-08-17T10:11:59;20.80;99.90
23100;DHT22;53791;50.696;4.396;2023-08-17T10:14:34;20.80;99.90
23100;DHT22;53791;50.696;4.396;2023-08-17T10:17:05;20.90;99.90
23100;DHT22;53791;50.696;4.396;2023-08-17T10:19:52;20.90;99.90
23100;DHT22;53791;50.696;4.396;2023-08-17T10:22:30;20.90;99.90
23100;DHT22;53791;50.696;4.396;2023-08-17T10:24:58;21.00;99.90
23100;DHT22;53791;50.696;4.396;2023-08-17T10:27:29;20.90;99.90
23100;DHT22;53791;50.696;4.396;2023-08-17T10:29:56;20.90;99.90
23100;DHT22;53791;50.696;4.396;2023-08-17T10:32:27;20.80;99.90
23100;DHT22;53791;50.696;4.396;2023-08-17T10:34:55;20.90;99.90
23100;DHT22;53791;50.696;4.396;2023-08-17T10:37:23;20.80;99.90
23100;DHT22;53791;50.696;4.396;2023-08-17T10:39:51;20.70;99.90
23100;DHT22;53791;50.696;4.396;2023-08-17T10:42:35;20.80;99.90
23100;DHT22;53791;50.696;4.396;2023-08-17T10:45:37;20.90;99.90
23100;DHT22;53791;50.696;4.396;2023-08-17T10:48:24;20.90;99.90
23100;DHT22;53791;50.696;4.396;2023-08-17T10:50:40;21.00;99.90
23100;DHT22;53791;50.696;4.396;2023-08-17T10:53:14;21.10;99.90
23100;DHT22;53791;50.696;4.396;2023-08-17T10:55:47;21.10;99.90
23100;DHT22;53791;50.696;4.396;2023-08-17T10:58:15;21.10;99.90
23100;DHT22;53791;50.696;4.396;2023-08-17T11:10:31;20.90;99.90
23100;DHT22;53791;50.696;4.396;2023-08-17T11:12:58;21.00;99.90
23100;DHT22;53791;50.696;4.396;2023-08-17T11:15:36;21.00;99.90
23100;DHT22;53791;50.696;4.396;2023-08-17T11:17:57;21.10;99.90
23100;DHT22;53791;50.696;4.396;2023-08-17T11:20:24;21.10;99.90
23100;DHT22;53791;50.696;4.396;2023-08-17T11:22:52;21.30;99.90
23100;DHT22;53791;50.696;4.396;2023-08-17T11:25:20;21.40;99.90
23100;DHT22;53791;50.696;4.396;2023-08-17T11:27:47;21.40;99.90
23100;DHT22;53791;50.696;4.396;2023-08-17T11:32:46;21.40;99.90
23100;DHT22;53791;50.696;4.396;2023-08-17T11:35:15;21.50;99.90
23100;DHT22;53791;50.696;4.396;2023-08-17T11:37:47;21.40;99.90
23100;DHT22;53791;50.696;4.396;2023-08-17T11:40:15;21.40;99.90
23100;DHT22;53791;50.696;4.396;2023-08-17T11:43:06;21.30;99.90
23100;DHT22;53791;50.696;4.396;2023-08-17T11:45:25;21.30;99.90
23100;DHT22;53791;50.696;4.396;2023-08-17T11:47:53;21.30;99.90
23100;DHT22;53791;50.696;4.396;2023-08-17T11:50:21;21.40;99.90
23100;DHT22;53791;50.696;4.396;2023-08-17T11:52:48;21.30;99.90
23100;DHT22;53791;50.696;4.396;2023-08-17T11:55:18;21.20;99.90
23100;DHT22;53791;50.696;4.396;2023-08-17T11:57:46;21.20;99.90
23100;DHT22;53791;50.696;4.396;2023-08-17T12:03:02;21.10;99.90
23100;DHT22;53791;50.696;4.396;2023-08-17T12:05:31;21.00;99.90
23100;DHT22;53791;50.696;4.396;2023-08-17T12:08:00;20.80;99.90
23100;DHT22;53791;50.696;4.396;2023-08-17T12:10:32;20.90;99.90
23100;DHT22;53791;50.696;4.396;2023-08-17T12:13:01;20.90;99.90
23100;DHT22;53791;50.696;4.396;2023-08-17T12:15:33;20.90;99.90
23100;DHT22;53791;50.696;4.396;2023-08-17T12:18:05;21.00;99.90
23100;DHT22;53791;50.696;4.396;2023-08-17T12:20:35;21.00;99.90
23100;DHT22;53791;50.696;4.396;2023-08-17T12:23:03;21.20;99.90
23100;DHT22;53791;50.696;4.396;2023-08-17T12:25:31;21.50;99.90
23100;DHT22;53791;50.696;4.396;2023-08-17T12:28:12;21.70;99.90
23100;DHT22;53791;50.696;4.396;2023-08-17T12:30:44;21.90;99.90
23100;DHT22;53791;50.696;4.396;2023-08-17T12:33:09;22.10;99.90
23100;DHT22;53791;50.696;4.396;2023-08-17T12:35:36;22.10;99.90
23100;DHT22;53791;50.696;4.396;2023-08-17T12:38:04;22.10;99.90
23100;DHT22;53791;50.696;4.396;2023-08-17T12:40:33;22.10;99.90
23100;DHT22;53791;50.696;4.396;2023-08-17T12:43:01;21.90;99.90
23100;DHT22;53791;50.696;4.396;2023-08-17T12:45:29;21.90;99.90
23100;DHT22;53791;50.696;4.396;2023-08-17T12:48:00;22.00;99.90
23100;DHT22;53791;50.696;4.396;2023-08-17T12:50:33;22.00;99.90
23100;DHT22;53791;50.696;4.396;2023-08-17T12:53:13;22.00;99.90
23100;DHT22;53791;50.696;4.396;2023-08-17T12:55:36;22.00;99.90
23100;DHT22;53791;50.696;4.396;2023-08-17T12:58:08;21.80;99.90
23100;DHT22;53791;50.696;4.396;2023-08-17T13:00:42;21.80;99.90
23100;DHT22;53791;50.696;4.396;2023-08-17T13:03:09;21.90;99.90
23100;DHT22;53791;50.696;4.396;2023-08-17T13:05:58;22.00;99.90
23100;DHT22;53791;50.696;4.396;2023-08-17T13:08:15;22.00;99.90
23100;DHT22;53791;50.696;4.396;2023-08-17T13:11:03;22.00;99.90
23100;DHT22;53791;50.696;4.396;2023-08-17T13:13:32;22.00;99.90
23100;DHT22;53791;50.696;4.396;2023-08-17T13:19:07;22.20;99.90
23100;DHT22;53791;50.696;4.396;2023-08-17T13:21:43;22.20;99.90
23100;DHT22;53791;50.696;4.396;2023-08-17T13:27:03;22.30;99.90
23100;DHT22;53791;50.696;4.396;2023-08-17T13:29:35;22.50;99.90
23100;DHT22;53791;50.696;4.396;2023-08-17T13:32:13;22.40;99.90
23100;DHT22;53791;50.696;4.396;2023-08-17T13:34:43;22.50;99.90
23100;DHT22;53791;50.696;4.396;2023-08-17T13:37:25;22.60;99.90
23100;DHT22;53791;50.696;4.396;2023-08-17T13:39:53;22.60;99.90
23100;DHT22;53791;50.696;4.396;2023-08-17T13:42:40;22.60;99.90
23100;DHT22;53791;50.696;4.396;2023-08-17T13:45:08;22.40;99.90
23100;DHT22;53791;50.696;4.396;2023-08-17T13:47:35;22.20;99.90
23100;DHT22;53791;50.696;4.396;2023-08-17T13:50:08;22.20;99.90
23100;DHT22;53791;50.696;4.396;2023-08-17T13:52:56;22.10;99.90
23100;DHT22;53791;50.696;4.396;2023-08-17T13:55:28;22.00;99.90
23100;DHT22;53791;50.696;4.396;2023-08-17T13:57:58;21.80;99.90
23100;DHT22;53791;50.696;4.396;2023-08-17T14:00:48;21.70;99.90
23100;DHT22;53791;50.696;4.396;2023-08-17T14:03:16;21.60;99.90
23100;DHT22;53791;50.696;4.396;2023-08-17T14:05:55;21.60;99.90
23100;DHT22;53791;50.696;4.396;2023-08-17T14:08:23;21.70;99.90
23100;DHT22;53791;50.696;4.396;2023-08-17T14:10:50;21.60;99.90
23100;DHT22;53791;50.696;4.396;2023-08-17T14:13:18;21.70;99.90
23100;DHT22;53791;50.696;4.396;2023-08-17T14:15:46;21.60;99.90
23100;DHT22;53791;50.696;4.396;2023-08-17T14:18:15;21.50;99.90
23100;DHT22;53791;50.696;4.396;2023-08-17T14:20:43;21.60;99.90
23100;DHT22;53791;50.696;4.396;2023-08-17T14:23:16;21.60;99.90
23100;DHT22;53791;50.696;4.396;2023-08-17T14:25:43;21.60;99.90
23100;DHT22;53791;50.696;4.396;2023-08-17T14:31:14;21.40;99.90
23100;DHT22;53791;50.696;4.396;2023-08-17T14:33:45;21.60;99.90
23100;DHT22;53791;50.696;4.396;2023-08-17T14:36:14;21.70;99.90
23100;DHT22;53791;50.696;4.396;2023-08-17T14:38:45;21.80;99.90
23100;DHT22;53791;50.696;4.396;2023-08-17T14:41:11;21.80;99.90
23100;DHT22;53791;50.696;4.396;2023-08-17T14:43:39;21.90;99.90
23100;DHT22;53791;50.696;4.396;2023-08-17T14:46:08;21.90;99.90
23100;DHT22;53791;50.696;4.396;2023-08-17T14:48:39;21.80;99.90
23100;DHT22;53791;50.696;4.396;2023-08-17T14:51:19;21.70;99.90
23100;DHT22;53791;50.696;4.396;2023-08-17T14:53:49;21.70;99.90
23100;DHT22;53791;50.696;4.396;2023-08-17T14:56:30;21.70;99.90
23100;DHT22;53791;50.696;4.396;2023-08-17T14:59:15;21.70;99.90
23100;DHT22;53791;50.696;4.396;2023-08-17T15:01:43;21.90;99.90
23100;DHT22;53791;50.696;4.396;2023-08-17T15:04:15;22.00;99.90
23100;DHT22;53791;50.696;4.396;2023-08-17T15:06:49;22.10;99.90
23100;DHT22;53791;50.696;4.396;2023-08-17T15:09:21;22.10;99.90
23100;DHT22;53791;50.696;4.396;2023-08-17T15:12:00;22.10;99.90
23100;DHT22;53791;50.696;4.396;2023-08-17T15:17:31;22.00;99.90
23100;DHT22;53791;50.696;4.396;2023-08-17T15:20:03;22.00;99.90
23100;DHT22;53791;50.696;4.396;2023-08-17T15:25:37;22.20;99.90
23100;DHT22;53791;50.696;4.396;2023-08-17T15:28:20;22.10;99.90
23100;DHT22;53791;50.696;4.396;2023-08-17T15:33:44;22.10;99.90
23100;DHT22;53791;50.696;4.396;2023-08-17T15:36:19;22.10;99.90
23100;DHT22;53791;50.696;4.396;2023-08-17T15:39:08;22.00;99.90
23100;DHT22;53791;50.696;4.396;2023-08-17T15:41:44;22.10;99.90
23100;DHT22;53791;50.696;4.396;2023-08-17T15:44:12;22.20;99.90
23100;DHT22;53791;50.696;4.396;2023-08-17T15:46:40;22.20;99.90
23100;DHT22;53791;50.696;4.396;2023-08-17T15:49:28;22.20;99.90
23100;DHT22;53791;50.696;4.396;2023-08-17T15:51:55;22.30;99.90
23100;DHT22;53791;50.696;4.396;2023-08-17T15:56:58;22.40;99.90
23100;DHT22;53791;50.696;4.396;2023-08-17T15:59:38;22.40;99.90
23100;DHT22;53791;50.696;4.396;2023-08-17T16:02:07;22.40;99.90
23100;DHT22;53791;50.696;4.396;2023-08-17T16:04:35;22.60;99.90
23100;DHT22;53791;50.696;4.396;2023-08-17T16:07:24;22.50;99.90
23100;DHT22;53791;50.696;4.396;2023-08-17T16:09:31;22.60;99.90
23100;DHT22;53791;50.696;4.396;2023-08-17T16:12:24;22.60;99.90
23100;DHT22;53791;50.696;4.396;2023-08-17T16:14:52;22.60;99.90
23100;DHT22;53791;50.696;4.396;2023-08-17T16:17:23;22.20;99.90
23100;DHT22;53791;50.696;4.396;2023-08-17T16:22:37;22.30;99.90
23100;DHT22;53791;50.696;4.396;2023-08-17T16:25:03;22.20;99.90
23100;DHT22;53791;50.696;4.396;2023-08-17T16:27:40;22.20;99.90
23100;DHT22;53791;50.696;4.396;2023-08-17T16:30:09;22.10;99.90
23100;DHT22;53791;50.696;4.396;2023-08-17T16:32:37;22.10;99.90
23100;DHT22;53791;50.696;4.396;2023-08-17T16:35:05;22.20;99.90